Accueil
METAR-TAF:

METAR-TAF

Aéroports :

Aéroport de Nantes Atlantique

Nantes, France

latitude: 47-10N, longitude: 001-36W, altitude: 27 m

Observation

Le bulletin a été fait il y a 32 minutes, à 22:30 UTC
Vent 2 kt de direction variable
Température 14°C
Humidité 77%
Pression 1024 hPa
Visibilité 10 km ou plus
pas de nuages en-dessous de 1500 mètres et pas de cumulonimbus.

METAR: LFRS 172230Z AUTO VRB02KT CAVOK 14/10 Q1024 NOSIG

Heure: 01:02 (23:02 UTC)

Prévision

Le bulletin a été fait il y a 6 heures et 2 minutes, à 17:00 UTC
Prévision valable du 17 à 18 UTC au 18 à 24 UTC
Vent 7 kt de nord
Visibilité 10 km ou plus
pas de nuages en-dessous de 1500 mètres et pas de cumulonimbus.
Evoluant progressivement
du 18 à 00 UTC au 18 à 02 UTC
Vent 4 kt de nord-est
Evoluant progressivement
du 18 à 14 UTC au 18 à 18 UTC
Vent 10 kt de ouest

TAF: LFRS 171700Z 1718/1824 35007KT CAVOK BECMG 1800/1802 04004KT BECMG 1814/1818 28010KT

Observations et prévisions météorologiques de plus de 4000 aéroports (messages METAR et TAF).

Les stations disponibles sont représentées par des disques jaunes et rouges sur la carte.

Passer la souris dessus pour voir le nom de la station.

Cliquer dessus pour voir les observations et prévisions météorologiques.

Pour changer de carte: cliquez sur les boutons verts avec une croix noire pour zoomer, sur le bouton vert avec un tiret pour effectuer un zoom arrière, ou sur les flèches vertes pour les cartes adjacentes.


METAR-TAF: